Time;durP1;ratioP1;P1;durP2;ratioP2;P2;SDS_P1;SDS_P2;PMS_P1;PMS_P2;Temp;Humidity;BMP_temperature;BMP_pressure;BME280_temperature;BME280_humidity;BME280_pressure;Samples;Min_cycle;Max_cycle;Signal;HPM_P1;HPM_P2
2021/09/01 00:01:23;;;;;;;13.05;8.77;;;;;;;17.72;69.22;102434.34;6198204;28;20576;-48
2021/09/01 00:04:44;;;;;;;13.95;8.60;;;;;;;17.44;70.16;102441.72;6171130;28;20433;-50
2021/09/01 00:08:05;;;;;;;14.05;9.32;;;;;;;17.57;68.76;102443.31;6204993;28;20229;-53
2021/09/01 00:11:26;;;;;;;14.52;8.75;;;;;;;17.25;70.36;102443.69;6199771;28;20244;-54
2021/09/01 00:14:48;;;;;;;14.30;7.70;;;;;;;17.23;70.71;102453.34;6197016;28;20229;-51
2021/09/01 00:18:09;;;;;;;11.85;8.00;;;;;;;17.41;69.77;102450.53;6202883;28;20229;-54
2021/09/01 00:21:31;;;;;;;11.52;8.48;;;;;;;17.49;69.45;102453.94;6202776;28;20465;-52
2021/09/01 00:24:52;;;;;;;13.32;9.27;;;;;;;17.40;69.79;102458.44;6201992;28;20241;-51
2021/09/01 00:28:13;;;;;;;11.32;9.15;;;;;;;17.36;70.18;102462.88;6199609;28;20229;-50
2021/09/01 00:31:35;;;;;;;14.63;9.10;;;;;;;17.40;69.69;102464.56;6205097;28;20240;-52
2021/09/01 00:34:57;;;;;;;12.25;7.80;;;;;;;17.54;69.12;102460.91;6198187;28;20554;-53
2021/09/01 00:38:18;;;;;;;14.30;9.43;;;;;;;17.51;69.02;102470.59;6203705;28;20232;-54
2021/09/01 00:41:38;;;;;;;12.27;8.65;;;;;;;17.39;69.63;102462.84;6198111;28;20233;-51
2021/09/01 00:44:59;;;;;;;16.17;8.95;;;;;;;17.46;69.43;102467.13;6202993;28;20253;-53
2021/09/01 00:48:22;;;;;;;18.70;8.98;;;;;;;17.56;69.08;102467.03;6198900;28;20244;-50
2021/09/01 00:51:46;;;;;;;12.93;9.07;;;;;;;17.50;68.97;102465.34;6185508;28;20624;-50
2021/09/01 00:55:10;;;;;;;12.43;7.70;;;;;;;17.47;68.81;102471.53;6191641;28;20539;-51
2021/09/01 00:58:37;;;;;;;14.38;8.82;;;;;;;17.45;69.00;102462.78;6175714;28;20428;-53
2021/09/01 01:01:58;;;;;;;11.25;8.18;;;;;;;17.42;69.25;102465.44;6165625;28;20591;-50
2021/09/01 01:05:20;;;;;;;12.32;7.80;;;;;;;17.39;68.98;102465.47;6194077;28;20230;-53
2021/09/01 01:08:41;;;;;;;14.85;8.30;;;;;;;17.35;69.26;102466.41;6175854;28;20230;-49
2021/09/01 01:12:05;;;;;;;13.65;7.25;;;;;;;17.43;68.58;102459.28;6180275;28;20242;-54
2021/09/01 01:15:26;;;;;;;12.90;7.43;;;;;;;17.32;69.48;102466.44;6204128;28;20319;-51
2021/09/01 01:18:48;;;;;;;13.63;8.32;;;;;;;17.68;68.01;102469.50;6170128;28;20225;-52
2021/09/01 01:22:11;;;;;;;10.07;8.52;;;;;;;17.31;69.12;102469.94;6192303;28;20618;-48
2021/09/01 01:25:38;;;;;;;11.63;6.93;;;;;;;17.48;68.36;102473.25;6201812;28;20233;-47
2021/09/01 01:29:01;;;;;;;10.37;6.90;;;;;;;17.22;69.32;102476.19;6202857;28;20229;-50
2021/09/01 01:32:23;;;;;;;10.87;6.93;;;;;;;17.27;69.37;102474.41;6189649;28;20237;-52
2021/09/01 01:35:46;;;;;;;9.73;7.85;;;;;;;17.36;68.96;102468.13;6167698;28;20239;-53
2021/09/01 01:39:07;;;;;;;11.35;7.78;;;;;;;17.23;69.20;102471.78;6181630;28;20241;-52
2021/09/01 01:42:29;;;;;;;10.37;6.77;;;;;;;17.18;69.30;102471.84;6199354;28;20241;-50
2021/09/01 01:45:50;;;;;;;16.13;8.20;;;;;;;17.03;69.46;102480.75;6208781;28;20234;-54
2021/09/01 01:49:12;;;;;;;9.47;7.60;;;;;;;17.28;68.64;102477.91;6214273;28;20495;-53
2021/09/01 01:52:33;;;;;;;10.35;6.60;;;;;;;17.03;69.14;102485.16;6194739;28;20571;-50
2021/09/01 01:55:54;;;;;;;12.32;7.10;;;;;;;17.16;69.05;102484.16;6201381;28;20225;-50
2021/09/01 01:59:17;;;;;;;10.80;6.55;;;;;;;17.51;68.16;102489.03;6187014;28;20238;-49
2021/09/01 02:02:38;;;;;;;13.63;7.40;;;;;;;17.23;68.67;102487.59;6212463;28;20244;-49
2021/09/01 02:05:58;;;;;;;9.85;7.53;;;;;;;17.24;69.18;102484.09;6215704;28;20489;-50
2021/09/01 02:09:19;;;;;;;11.20;6.45;;;;;;;17.32;68.29;102484.88;6201343;28;20229;-53
2021/09/01 02:12:41;;;;;;;13.23;7.78;;;;;;;17.10;69.05;102485.09;6207367;28;20242;-53
2021/09/01 02:16:04;;;;;;;10.48;6.25;;;;;;;17.12;69.33;102488.56;6211365;28;20233;-51
2021/09/01 02:19:25;;;;;;;14.02;8.15;;;;;;;17.32;68.41;102471.69;6206500;28;20230;-50
2021/09/01 02:22:47;;;;;;;15.00;7.20;;;;;;;17.31;68.42;102472.56;6209393;28;20316;-47
2021/09/01 02:26:08;;;;;;;14.55;7.95;;;;;;;17.21;69.02;102468.31;6218188;28;20256;-52
2021/09/01 02:29:29;;;;;;;9.65;8.20;;;;;;;17.25;69.33;102475.28;6216228;28;20890;-53
2021/09/01 02:32:51;;;;;;;12.48;8.10;;;;;;;17.09;69.64;102475.44;6211099;28;20237;-50
2021/09/01 02:36:11;;;;;;;12.33;7.27;;;;;;;17.46;68.89;102475.03;6218926;28;20658;-51
2021/09/01 02:39:32;;;;;;;13.43;8.10;;;;;;;17.04;69.73;102468.47;6209189;28;20245;-51
2021/09/01 02:42:53;;;;;;;9.27;6.67;;;;;;;17.02;70.06;102475.50;6206627;28;20262;-48
2021/09/01 02:46:14;;;;;;;12.77;7.07;;;;;;;16.85;70.50;102476.56;6214786;28;20803;-53
2021/09/01 02:49:36;;;;;;;11.90;8.33;;;;;;;16.86;70.71;102472.16;6195892;28;20226;-52
2021/09/01 02:52:57;;;;;;;16.43;8.33;;;;;;;16.98;70.06;102469.41;6205459;28;20237;-51
2021/09/01 02:56:18;;;;;;;17.23;9.03;;;;;;;17.08;69.46;102447.38;6202942;28;20280;-51
2021/09/01 02:59:39;;;;;;;14.35;7.97;;;;;;;16.99;69.88;102463.25;6206412;28;20492;-52
2021/09/01 03:03:00;;;;;;;13.68;8.40;;;;;;;16.53;71.13;102463.63;6196640;28;20232;-51
2021/09/01 03:06:22;;;;;;;13.87;8.53;;;;;;;16.96;70.09;102458.00;6202810;28;20237;-52
2021/09/01 03:09:43;;;;;;;17.57;10.53;;;;;;;16.89;70.19;102456.34;6207651;28;20317;-51
2021/09/01 03:13:05;;;;;;;13.52;10.10;;;;;;;16.90;70.15;102456.34;6206015;28;20246;-52
2021/09/01 03:16:26;;;;;;;16.03;11.57;;;;;;;16.64;70.79;102453.03;6216045;28;20221;-53
2021/09/01 03:19:47;;;;;;;18.90;11.13;;;;;;;16.50;71.58;102463.66;6199021;28;20324;-52
2021/09/01 03:23:09;;;;;;;13.57;12.00;;;;;;;16.66;71.20;102462.66;6214719;28;20248;-53
2021/09/01 03:26:32;;;;;;;17.60;10.63;;;;;;;16.83;70.95;102462.53;6207662;28;20377;-52
2021/09/01 03:29:53;;;;;;;11.83;10.20;;;;;;;17.07;70.11;102453.53;6204451;28;20683;-50
2021/09/01 03:33:13;;;;;;;14.93;10.83;;;;;;;17.07;69.90;102457.91;6188699;28;20644;-49
2021/09/01 03:36:35;;;;;;;14.00;10.40;;;;;;;16.94;70.89;102472.94;6175146;28;20237;-51
2021/09/01 03:39:57;;;;;;;18.97;12.30;;;;;;;16.73;71.37;102474.88;6208677;28;20229;-48
2021/09/01 03:43:18;;;;;;;16.53;12.87;;;;;;;16.97;70.74;102470.31;6211777;28;20607;-50
2021/09/01 03:46:39;;;;;;;16.80;12.73;;;;;;;16.81;71.29;102473.91;6196359;28;20576;-49
2021/09/01 03:50:00;;;;;;;22.43;13.33;;;;;;;16.72;71.54;102475.75;6189541;28;20242;-49
2021/09/01 03:53:21;;;;;;;17.23;12.10;;;;;;;16.82;71.42;102473.94;6167607;28;20230;-53
2021/09/01 03:56:43;;;;;;;13.83;12.10;;;;;;;16.77;71.47;102477.44;6183503;28;20229;-50
2021/09/01 04:00:04;;;;;;;21.47;15.27;;;;;;;16.49;71.88;102475.06;6195213;28;20234;-52
2021/09/01 04:03:32;;;;;;;18.97;13.87;;;;;;;16.47;72.40;102472.44;6188771;28;20243;-53
2021/09/01 04:06:53;;;;;;;15.93;13.20;;;;;;;16.80;71.43;102475.69;6202522;28;20237;-51
2021/09/01 04:10:14;;;;;;;20.67;12.83;;;;;;;16.87;71.51;102484.44;6189792;28;20237;-51
2021/09/01 04:13:36;;;;;;;19.47;12.00;;;;;;;16.89;71.31;102488.78;6197031;28;20309;-54
2021/09/01 04:16:56;;;;;;;18.87;14.23;;;;;;;16.59;72.40;102483.75;6200966;28;20600;-51
2021/09/01 04:20:17;;;;;;;18.23;14.77;;;;;;;16.64;71.63;102477.56;6206612;28;20261;-52
2021/09/01 04:23:38;;;;;;;18.27;14.53;;;;;;;16.77;72.11;102493.25;6203480;28;20225;-53
2021/09/01 04:26:59;;;;;;;20.33;15.77;;;;;;;16.73;71.63;102488.03;6202670;28;20260;-51
2021/09/01 04:30:22;;;;;;;16.60;13.43;;;;;;;16.97;71.30;102486.09;6194721;28;20327;-54
2021/09/01 04:33:43;;;;;;;21.87;15.20;;;;;;;16.94;71.49;102486.09;6204190;28;20544;-52
2021/09/01 04:37:04;;;;;;;18.07;14.20;;;;;;;16.84;71.54;102492.34;6192564;28;20237;-54
2021/09/01 04:40:25;;;;;;;18.88;14.77;;;;;;;16.88;70.80;102484.41;6195168;28;20237;-51
2021/09/01 04:43:46;;;;;;;21.73;15.13;;;;;;;16.53;72.20;102490.78;6174759;28;20245;-51
2021/09/01 04:47:08;;;;;;;23.87;16.03;;;;;;;16.82;71.71;102486.22;6182208;28;20244;-48
2021/09/01 04:50:29;;;;;;;26.33;17.23;;;;;;;16.80;71.66;102493.22;6194448;28;20229;-49
2021/09/01 04:53:50;;;;;;;23.33;17.53;;;;;;;17.08;71.17;102500.03;6206944;28;20229;-52
2021/09/01 04:57:12;;;;;;;20.47;16.47;;;;;;;17.08;71.30;102492.13;6195820;28;20790;-51
2021/09/01 05:00:33;;;;;;;22.07;16.53;;;;;;;17.03;71.06;102499.19;6175301;28;20435;-54
2021/09/01 05:03:55;;;;;;;27.35;18.30;;;;;;;16.99;71.07;102500.09;6196075;28;20249;-51
2021/09/01 05:07:17;;;;;;;24.13;18.35;;;;;;;16.74;71.97;102500.28;6202613;28;20229;-50
2021/09/01 05:10:38;;;;;;;25.02;17.98;;;;;;;16.99;71.12;102505.38;6192220;28;20237;-50
2021/09/01 05:13:59;;;;;;;24.85;18.17;;;;;;;16.90;71.67;102511.59;6194832;28;20232;-51
2021/09/01 05:17:20;;;;;;;21.98;16.92;;;;;;;16.97;71.41;102504.50;6198067;28;20233;-52
2021/09/01 05:20:42;;;;;;;26.65;17.52;;;;;;;17.03;70.99;102514.97;6194859;28;20232;-49
2021/09/01 05:24:04;;;;;;;27.17;16.00;;;;;;;17.17;70.49;102525.38;6207317;28;20323;-52
2021/09/01 05:27:27;;;;;;;24.27;17.23;;;;;;;16.94;71.67;102517.69;6207927;28;20225;-50
2021/09/01 05:30:49;;;;;;;22.15;17.10;;;;;;;17.21;70.60;102528.84;6204906;28;20225;-50
2021/09/01 05:34:11;;;;;;;24.27;17.33;;;;;;;17.31;70.23;102530.50;6198449;28;20245;-50
2021/09/01 05:37:34;;;;;;;23.33;16.58;;;;;;;17.18;70.45;102537.66;6182759;28;20222;-50
2021/09/01 05:40:57;;;;;;;20.27;15.27;;;;;;;17.33;70.32;102536.63;6195435;28;20634;-52
2021/09/01 05:44:19;;;;;;;23.30;16.47;;;;;;;16.70;71.50;102540.66;6204582;28;20732;-51
2021/09/01 05:47:40;;;;;;;25.30;18.13;;;;;;;16.76;71.96;102541.50;6204032;28;20395;-52
2021/09/01 05:51:02;;;;;;;20.87;15.90;;;;;;;16.62;72.45;102537.19;6200280;28;20226;-48
2021/09/01 05:54:25;;;;;;;18.77;14.20;;;;;;;16.74;72.01;102544.13;6207040;28;20237;-51
2021/09/01 05:57:46;;;;;;;18.67;14.63;;;;;;;16.83;71.81;102545.88;6206455;28;20233;-48
2021/09/01 06:01:11;;;;;;;25.37;14.67;;;;;;;16.54;72.37;102549.53;6194687;28;20233;-47
2021/09/01 06:04:38;;;;;;;18.17;14.33;;;;;;;16.49;72.54;102548.69;6208907;28;20257;-51
2021/09/01 06:08:01;;;;;;;17.20;12.60;;;;;;;16.90;71.45;102558.97;6196426;28;20607;-55
2021/09/01 06:11:25;;;;;;;15.80;11.90;;;;;;;16.84;71.10;102552.84;6199905;28;20333;-52
2021/09/01 06:14:47;;;;;;;18.37;13.67;;;;;;;16.98;70.66;102550.97;6201014;28;20318;-52
2021/09/01 06:18:09;;;;;;;19.07;13.20;;;;;;;17.11;70.42;102555.25;6189384;28;20512;-49
2021/09/01 06:21:30;;;;;;;17.40;12.87;;;;;;;17.27;69.82;102556.00;6194117;28;20231;-54
2021/09/01 06:24:51;;;;;;;14.63;11.47;;;;;;;17.28;69.63;102559.50;6196737;28;20233;-52
2021/09/01 06:28:14;;;;;;;17.43;12.93;;;;;;;16.97;70.81;102569.44;6210499;28;20249;-52
2021/09/01 06:31:38;;;;;;;13.13;10.73;;;;;;;17.12;69.83;102564.91;6187533;28;20344;-53
2021/09/01 06:34:59;;;;;;;18.27;14.13;;;;;;;17.08;69.83;102562.34;6216610;28;20240;-51
2021/09/01 06:38:20;;;;;;;16.23;12.27;;;;;;;17.07;70.46;102565.84;6213773;28;20614;-49
2021/09/01 06:41:41;;;;;;;18.73;15.33;;;;;;;17.26;70.04;102571.81;6208814;28;20229;-52
2021/09/01 06:45:06;;;;;;;15.50;10.53;;;;;;;17.26;69.66;102567.41;6212532;28;20592;-53
2021/09/01 06:48:27;;;;;;;15.27;12.37;;;;;;;17.64;68.79;102549.47;6211811;28;20233;-52
2021/09/01 06:51:48;;;;;;;16.03;11.67;;;;;;;17.51;68.92;102564.56;6205839;28;20242;-55
2021/09/01 06:55:10;;;;;;;20.47;15.03;;;;;;;17.91;67.68;102550.94;6205632;28;20241;-52
2021/09/01 06:58:31;;;;;;;16.98;13.90;;;;;;;17.75;68.29;102549.38;6209918;28;20217;-53
2021/09/01 07:01:53;;;;;;;15.38;12.75;;;;;;;17.97;67.67;102560.53;6190702;28;20253;-52
2021/09/01 07:05:16;;;;;;;15.67;12.63;;;;;;;18.00;66.94;102552.63;6207118;28;20273;-52
2021/09/01 07:08:36;;;;;;;16.45;12.52;;;;;;;18.13;67.00;102551.56;6187551;28;20518;-53
2021/09/01 07:11:57;;;;;;;16.60;14.02;;;;;;;18.26;66.13;102560.16;6215142;28;20233;-52
2021/09/01 07:15:18;;;;;;;14.45;11.27;;;;;;;18.44;65.76;102559.06;6208078;28;20678;-53
2021/09/01 07:18:40;;;;;;;17.80;11.70;;;;;;;18.60;65.37;102563.19;6208922;28;20522;-52
2021/09/01 07:22:01;;;;;;;16.88;13.23;;;;;;;18.66;65.30;102557.81;6209388;28;20237;-49
2021/09/01 07:25:23;;;;;;;14.70;12.13;;;;;;;18.61;65.40;102556.16;6214573;28;20541;-47
2021/09/01 07:28:44;;;;;;;21.13;16.10;;;;;;;18.88;64.33;102566.34;6212635;28;20225;-49
2021/09/01 07:32:05;;;;;;;13.73;12.18;;;;;;;18.57;65.75;102562.38;6210492;28;20257;-50
2021/09/01 07:35:27;;;;;;;19.30;12.88;;;;;;;18.65;65.03;102565.75;6189559;28;20241;-49
2021/09/01 07:38:49;;;;;;;15.85;14.23;;;;;;;19.07;63.90;102566.88;6190373;28;20324;-51
2021/09/01 07:42:09;;;;;;;14.90;12.90;;;;;;;18.48;65.94;102568.66;6191385;28;20242;-53
2021/09/01 07:45:31;;;;;;;17.85;14.18;;;;;;;18.75;65.23;102577.06;6188093;28;20630;-52
2021/09/01 07:48:57;;;;;;;19.02;14.68;;;;;;;19.02;64.23;102571.38;6200987;28;20237;-48
2021/09/01 07:52:19;;;;;;;21.15;13.95;;;;;;;19.05;63.78;102573.94;6210501;28;20769;-54
2021/09/01 07:55:40;;;;;;;17.52;13.52;;;;;;;19.02;63.81;102579.31;6203269;28;20623;-53
2021/09/01 07:59:01;;;;;;;17.70;12.20;;;;;;;18.89;64.12;102586.53;6196070;28;20238;-53
2021/09/01 08:02:22;;;;;;;12.82;11.38;;;;;;;19.35;63.96;102584.91;6174169;28;20556;-53
2021/09/01 08:05:43;;;;;;;12.65;11.27;;;;;;;19.02;64.05;102592.50;6191704;28;20241;-53
2021/09/01 08:09:05;;;;;;;11.85;10.75;;;;;;;19.42;63.28;102590.94;6204328;28;20268;-56
2021/09/01 08:12:26;;;;;;;12.60;9.80;;;;;;;19.91;61.23;102583.88;6190935;28;20278;-54
2021/09/01 08:15:47;;;;;;;10.15;8.88;;;;;;;20.24;61.05;102584.97;6200984;28;20571;-59
2021/09/01 08:19:08;;;;;;;11.02;8.88;;;;;;;20.49;60.10;102595.88;6204397;28;20233;-54
2021/09/01 08:22:29;;;;;;;10.60;8.98;;;;;;;20.42;59.83;102592.47;6212231;28;20901;-57
2021/09/01 08:25:51;;;;;;;15.00;9.80;;;;;;;19.98;61.21;102593.44;6213928;28;20225;-53
2021/09/01 08:29:12;;;;;;;9.07;7.25;;;;;;;20.25;61.06;102595.47;6182308;28;20570;-54
2021/09/01 08:32:34;;;;;;;8.23;7.38;;;;;;;20.38;60.04;102598.75;6194549;28;20225;-56
2021/09/01 08:35:55;;;;;;;13.10;8.40;;;;;;;20.63;59.35;102596.44;6199945;28;20236;-57
2021/09/01 08:39:16;;;;;;;12.73;9.35;;;;;;;20.80;59.25;102593.41;6204667;28;20257;-52
2021/09/01 08:42:38;;;;;;;12.07;8.35;;;;;;;20.53;59.51;102597.53;6170126;28;20233;-55
2021/09/01 08:46:02;;;;;;;9.35;8.32;;;;;;;20.99;58.39;102598.25;6202620;28;20544;-54
2021/09/01 08:49:26;;;;;;;10.10;8.63;;;;;;;20.90;58.95;102594.06;6190097;28;20233;-52
2021/09/01 08:52:47;;;;;;;13.88;9.43;;;;;;;21.07;58.10;102600.72;6197263;28;20248;-57
2021/09/01 08:56:08;;;;;;;11.23;8.02;;;;;;;21.22;57.42;102611.78;6193366;28;21792;-56
2021/09/01 08:59:30;;;;;;;12.32;7.57;;;;;;;20.73;58.66;102593.59;6191568;28;20222;-57
2021/09/01 09:02:57;;;;;;;8.07;6.57;;;;;;;21.26;57.59;102586.09;6196349;28;20229;-54
2021/09/01 09:06:17;;;;;;;9.23;7.05;;;;;;;21.37;56.92;102577.88;6207601;28;20515;-54
2021/09/01 09:09:40;;;;;;;8.55;6.88;;;;;;;21.49;56.77;102589.94;6208542;28;20241;-54
2021/09/01 09:13:03;;;;;;;9.48;6.72;;;;;;;21.12;57.80;102586.44;6204505;28;20281;-57
2021/09/01 09:16:25;;;;;;;9.02;6.85;;;;;;;21.29;56.93;102586.03;6213589;28;20339;-56
2021/09/01 09:19:49;;;;;;;13.10;6.35;;;;;;;21.67;56.87;102593.88;6181406;28;20229;-59
2021/09/01 09:23:10;;;;;;;7.90;6.82;;;;;;;22.06;55.71;102586.56;6209084;28;20448;-57
2021/09/01 09:26:33;;;;;;;6.78;5.97;;;;;;;22.30;55.33;102590.31;6212956;28;20213;-57
2021/09/01 09:29:54;;;;;;;6.97;6.18;;;;;;;22.12;55.42;102591.72;6204317;28;20635;-57
2021/09/01 09:33:18;;;;;;;7.95;6.50;;;;;;;22.19;55.37;102585.28;6204862;28;20233;-55
2021/09/01 09:36:40;;;;;;;11.40;7.10;;;;;;;22.36;55.12;102586.59;6208469;28;20237;-57
2021/09/01 09:40:01;;;;;;;5.78;5.28;;;;;;;22.52;55.02;102585.19;6212238;28;20241;-57
2021/09/01 09:43:24;;;;;;;11.60;7.60;;;;;;;22.80;54.61;102587.00;6180420;28;20256;-55
2021/09/01 09:46:48;;;;;;;8.13;6.38;;;;;;;22.63;54.09;102584.88;6187439;28;20218;-57
2021/09/01 09:50:12;;;;;;;8.57;6.18;;;;;;;22.64;52.87;102591.91;6201335;28;20228;-51
2021/09/01 09:53:36;;;;;;;10.52;6.57;;;;;;;22.73;53.06;102596.91;6202078;28;20241;-54
2021/09/01 09:57:08;;;;;;;8.02;6.03;;;;;;;22.60;54.42;102591.16;6210581;28;20675;-50
2021/09/01 10:00:30;;;;;;;12.38;5.93;;;;;;;22.95;53.30;102586.50;6205559;28;20641;-53
2021/09/01 10:03:52;;;;;;;6.72;5.72;;;;;;;23.06;52.61;102587.94;6198824;28;20235;-52
2021/09/01 10:07:14;;;;;;;7.60;5.95;;;;;;;23.30;52.41;102584.44;6184468;28;20258;-50
2021/09/01 10:10:37;;;;;;;9.10;6.18;;;;;;;23.25;52.06;102582.88;6192880;28;20369;-47
2021/09/01 10:13:58;;;;;;;9.00;6.35;;;;;;;23.51;52.86;102584.59;6197677;28;20237;-48
2021/09/01 10:17:21;;;;;;;8.60;7.38;;;;;;;23.61;52.40;102591.31;6209267;28;20321;-49
2021/09/01 10:20:45;;;;;;;9.15;7.35;;;;;;;23.33;51.95;102594.97;6209704;28;20233;-52
2021/09/01 10:24:23;;;;;;;10.57;7.28;;;;;;;23.63;51.75;102589.47;6202488;28;20254;-52
2021/09/01 10:27:44;;;;;;;10.65;6.65;;;;;;;23.62;51.74;102597.53;6186069;28;20313;-52
2021/09/01 10:31:25;;;;;;;9.30;6.35;;;;;;;23.94;51.12;102601.69;6189421;28;20615;-53
2021/09/01 10:34:47;;;;;;;8.05;6.03;;;;;;;24.02;51.47;102604.94;6204148;28;20225;-60
2021/09/01 10:38:08;;;;;;;10.00;7.15;;;;;;;24.17;49.50;102593.72;6207957;28;20229;-60
2021/09/01 10:41:31;;;;;;;8.15;6.53;;;;;;;24.13;49.38;102592.06;6213478;28;20237;-60
2021/09/01 10:44:52;;;;;;;9.27;7.25;;;;;;;23.59;50.47;102591.41;6208568;28;20241;-60
2021/09/01 10:48:13;;;;;;;7.07;6.38;;;;;;;24.13;49.87;102592.06;6205559;28;21478;-60
2021/09/01 10:51:34;;;;;;;9.07;7.05;;;;;;;23.83;49.63;102580.81;6197095;28;20229;-61
2021/09/01 10:54:55;;;;;;;6.57;5.15;;;;;;;24.33;48.96;102595.75;6208055;28;20229;-59
2021/09/01 10:58:23;;;;;;;7.22;6.45;;;;;;;24.64;48.35;102591.91;6208085;28;20233;-60
2021/09/01 11:02:08;;;;;;;6.05;5.40;;;;;;;25.58;46.36;102588.84;6203100;28;20229;-60
2021/09/01 11:05:30;;;;;;;6.70;5.28;;;;;;;26.16;45.19;102589.81;6203062;28;20260;-59
2021/09/01 11:08:59;;;;;;;11.48;6.80;;;;;;;26.47;43.74;102587.41;6214827;28;20465;-61
2021/09/01 11:12:21;;;;;;;7.35;5.43;;;;;;;26.37;44.50;102586.13;6178277;28;20236;-61
2021/09/01 11:15:45;;;;;;;8.23;6.53;;;;;;;26.70;43.48;102585.47;6207186;28;20233;-60
2021/09/01 11:19:07;;;;;;;6.18;5.45;;;;;;;26.95;43.26;102582.41;6210080;28;20233;-61
2021/09/01 11:22:31;;;;;;;11.73;7.35;;;;;;;25.98;44.61;102581.75;6211344;28;20225;-61
2021/09/01 11:25:52;;;;;;;10.55;7.55;;;;;;;26.98;42.22;102579.56;6213911;28;20233;-60
2021/09/01 11:29:13;;;;;;;8.68;7.18;;;;;;;29.46;36.64;102579.22;6202003;28;20570;-50
2021/09/01 11:32:37;;;;;;;9.80;7.05;;;;;;;31.36;33.62;102575.81;6186710;28;20237;-54
2021/09/01 11:35:57;;;;;;;7.82;6.47;;;;;;;32.29;31.82;102576.34;6202413;28;20225;-55
2021/09/01 11:39:19;;;;;;;6.95;5.05;;;;;;;31.98;32.35;102573.16;6206546;28;20225;-53
2021/09/01 11:42:40;;;;;;;6.60;6.00;;;;;;;28.71;38.06;102584.53;6200944;28;20639;-53
2021/09/01 11:46:01;;;;;;;7.97;5.50;;;;;;;26.66;42.68;102589.22;6211748;28;20730;-54
2021/09/01 11:49:24;;;;;;;6.78;5.82;;;;;;;30.48;34.73;102589.81;6199465;28;20230;-55
2021/09/01 11:52:52;;;;;;;6.53;5.80;;;;;;;29.14;37.00;102595.47;6198585;28;20229;-54
2021/09/01 11:56:13;;;;;;;7.25;5.90;;;;;;;28.97;37.78;102592.91;6198991;28;20236;-51
2021/09/01 11:59:35;;;;;;;7.28;6.65;;;;;;;32.90;30.68;102580.78;6197085;28;20324;-52
2021/09/01 12:02:56;;;;;;;9.55;5.65;;;;;;;32.31;31.38;102579.78;6196467;28;20241;-50
2021/09/01 12:06:19;;;;;;;6.65;5.80;;;;;;;34.01;28.52;102585.63;6182863;28;20749;-50
2021/09/01 12:09:40;;;;;;;7.40;6.30;;;;;;;35.98;26.22;102576.94;6190531;28;20261;-54
2021/09/01 12:13:02;;;;;;;6.88;6.13;;;;;;;35.41;26.19;102576.56;6192816;28;20234;-54
2021/09/01 12:16:26;;;;;;;7.43;5.57;;;;;;;35.01;26.75;102572.72;6197289;28;20726;-49
2021/09/01 12:19:48;;;;;;;6.00;5.15;;;;;;;35.18;25.63;102578.56;6155969;28;20233;-51
2021/09/01 12:23:18;;;;;;;5.60;4.95;;;;;;;32.45;29.67;102577.88;6196666;28;20247;-54
2021/09/01 12:26:51;;;;;;;6.45;5.00;;;;;;;34.85;27.60;102570.50;6213439;28;20237;-53
2021/09/01 12:30:13;;;;;;;7.28;5.45;;;;;;;34.24;27.56;102565.69;6182316;28;20226;-53
2021/09/01 12:33:34;;;;;;;5.80;4.82;;;;;;;31.92;31.18;102565.53;6183073;28;20241;-53
2021/09/01 12:36:59;;;;;;;6.20;5.15;;;;;;;31.66;31.19;102567.44;6201227;28;20233;-55
2021/09/01 12:40:28;;;;;;;6.30;5.63;;;;;;;28.31;37.52;102567.22;6201755;28;20301;-52
2021/09/01 12:43:58;;;;;;;10.18;6.03;;;;;;;28.16;39.15;102569.78;6208062;28;20249;-52
2021/09/01 12:47:19;;;;;;;6.10;5.50;;;;;;;29.02;37.08;102563.97;6204395;28;20229;-50
2021/09/01 12:50:43;;;;;;;8.25;6.05;;;;;;;30.03;35.47;102547.00;6199754;28;20233;-51
2021/09/01 12:54:04;;;;;;;6.72;5.95;;;;;;;32.15;31.09;102552.25;6200520;28;20229;-52
2021/09/01 12:57:26;;;;;;;8.02;5.60;;;;;;;30.53;34.57;102554.53;6208027;28;20324;-53
2021/09/01 13:00:47;;;;;;;8.25;6.15;;;;;;;28.61;38.08;102553.88;6204394;28;20217;-51
2021/09/01 13:04:08;;;;;;;6.40;5.28;;;;;;;29.47;36.77;102562.16;6193725;28;20554;-51
2021/09/01 13:07:29;;;;;;;6.30;5.10;;;;;;;33.42;28.87;102548.91;6180242;28;20225;-52
2021/09/01 13:10:50;;;;;;;6.25;5.65;;;;;;;34.10;27.81;102538.91;6182139;28;20521;-55
2021/09/01 13:14:12;;;;;;;6.88;5.05;;;;;;;34.95;26.97;102527.25;6193159;28;20233;-50
2021/09/01 13:17:35;;;;;;;5.35;4.72;;;;;;;31.83;31.78;102535.72;6172282;28;20250;-50
2021/09/01 13:20:56;;;;;;;5.47;4.95;;;;;;;29.50;36.04;102540.50;6179616;28;20238;-50
2021/09/01 13:24:18;;;;;;;8.30;6.53;;;;;;;31.10;33.00;102538.13;6162985;28;20250;-52
2021/09/01 13:27:40;;;;;;;7.22;6.53;;;;;;;34.52;28.24;102526.34;6193189;28;20228;-50
2021/09/01 13:31:03;;;;;;;7.93;4.97;;;;;;;32.28;30.69;102538.72;6198509;28;20241;-48
2021/09/01 13:34:24;;;;;;;7.60;5.65;;;;;;;30.40;34.46;102533.03;6208113;28;20225;-49
2021/09/01 13:37:44;;;;;;;6.30;5.38;;;;;;;33.58;29.26;102521.50;6200326;28;20264;-52
2021/09/01 13:41:06;;;;;;;6.85;6.15;;;;;;;34.10;29.04;102517.28;6206855;28;20556;-55
2021/09/01 13:44:27;;;;;;;6.13;5.53;;;;;;;34.36;27.27;102509.72;6209183;28;20241;-52
2021/09/01 13:47:49;;;;;;;7.70;5.82;;;;;;;31.70;31.57;102524.97;6201080;28;20238;-52
2021/09/01 13:51:10;;;;;;;5.88;5.38;;;;;;;32.65;31.53;102523.34;6186343;28;20600;-52
2021/09/01 13:54:32;;;;;;;8.65;5.53;;;;;;;32.92;30.34;102527.56;6195482;28;20237;-56
2021/09/01 13:57:56;;;;;;;6.07;5.47;;;;;;;33.08;29.95;102528.09;6188746;28;20221;-50
2021/09/01 14:01:18;;;;;;;5.38;4.90;;;;;;;32.27;31.02;102519.00;6173640;28;20226;-50
2021/09/01 14:04:41;;;;;;;6.18;5.07;;;;;;;35.14;27.75;102517.53;6189527;28;20315;-52
2021/09/01 14:08:02;;;;;;;10.35;6.47;;;;;;;32.87;30.44;102519.00;6182984;28;20292;-46
2021/09/01 14:11:23;;;;;;;7.10;5.80;;;;;;;31.90;32.16;102504.69;6181369;28;20229;-50
2021/09/01 14:14:44;;;;;;;6.30;5.70;;;;;;;31.38;33.34;102509.28;6136477;28;20512;-50
2021/09/01 14:18:05;;;;;;;6.72;5.93;;;;;;;32.10;32.05;102508.59;6165889;28;20258;-54
2021/09/01 14:21:28;;;;;;;6.88;4.78;;;;;;;31.03;33.68;102509.94;6165842;28;20321;-50
2021/09/01 14:24:49;;;;;;;7.78;5.90;;;;;;;30.85;34.41;102500.44;6194712;28;20887;-51
2021/09/01 14:28:10;;;;;;;8.57;4.78;;;;;;;30.94;34.52;102505.19;6215116;28;20328;-50
2021/09/01 14:31:31;;;;;;;6.85;5.57;;;;;;;30.62;34.99;102509.09;6211496;28;20241;-50
2021/09/01 14:34:52;;;;;;;6.75;5.95;;;;;;;29.83;36.23;102507.13;6207874;28;20237;-53
2021/09/01 14:38:15;;;;;;;7.63;5.18;;;;;;;29.63;36.83;102503.88;6209693;28;20232;-49
2021/09/01 14:41:35;;;;;;;7.47;5.53;;;;;;;29.10;37.78;102515.22;6195267;28;20254;-51
2021/09/01 14:44:56;;;;;;;7.85;5.32;;;;;;;28.12;39.35;102508.47;6194759;28;20230;-53
2021/09/01 14:48:18;;;;;;;8.70;6.20;;;;;;;26.99;41.71;102514.50;6190495;28;20222;-50
2021/09/01 14:51:39;;;;;;;6.70;6.10;;;;;;;28.38;39.50;102515.88;6201444;28;20600;-53
2021/09/01 14:55:02;;;;;;;7.72;5.85;;;;;;;26.39;42.53;102512.13;6192520;28;20238;-50
2021/09/01 14:58:23;;;;;;;7.40;5.35;;;;;;;27.26;41.79;102506.00;6210410;28;20225;-52
2021/09/01 15:01:44;;;;;;;7.53;5.13;;;;;;;27.30;41.48;102503.06;6181881;28;20500;-52
2021/09/01 15:05:06;;;;;;;8.20;5.78;;;;;;;27.03;42.10;102501.84;6196445;28;20672;-51
2021/09/01 15:08:27;;;;;;;6.00;4.80;;;;;;;27.06;42.31;102507.00;6185993;28;20249;-51
2021/09/01 15:11:50;;;;;;;8.38;6.40;;;;;;;27.44;41.43;102496.97;6193435;28;20368;-51
2021/09/01 15:15:12;;;;;;;7.05;5.10;;;;;;;26.94;42.56;102489.78;6177911;28;20234;-51
2021/09/01 15:18:33;;;;;;;5.90;5.22;;;;;;;27.60;41.33;102490.78;6198453;28;20527;-50
2021/09/01 15:21:54;;;;;;;5.47;4.93;;;;;;;27.47;41.34;102495.94;6221536;28;20813;-51
2021/09/01 15:25:16;;;;;;;7.88;4.90;;;;;;;27.63;40.77;102496.84;6193004;28;20234;-48
2021/09/01 15:28:39;;;;;;;7.82;4.88;;;;;;;27.18;41.75;102495.69;6178093;28;20915;-52